createdAt,value
2018-09-18T00:00:08.278Z,0
2018-09-18T00:01:08.214Z,0
2018-09-18T00:02:08.278Z,0
2018-09-18T00:03:08.217Z,0
2018-09-18T00:04:08.279Z,0
2018-09-18T00:05:08.211Z,0
2018-09-18T00:06:08.288Z,0
2018-09-18T00:07:08.211Z,0
2018-09-18T00:08:08.291Z,0
2018-09-18T00:09:08.288Z,0
2018-09-18T00:10:08.285Z,0
2018-09-18T00:11:08.289Z,0
2018-09-18T00:12:08.221Z,0
2018-09-18T00:13:08.267Z,0
2018-09-18T00:14:08.250Z,0
2018-09-18T00:15:08.203Z,0
2018-09-18T00:16:08.227Z,0
2018-09-18T00:17:08.211Z,0
2018-09-18T00:18:08.212Z,0
2018-09-18T00:19:08.207Z,0
2018-09-18T00:20:08.289Z,0
2018-09-18T00:21:08.325Z,0
2018-09-18T00:22:08.289Z,0
2018-09-18T00:23:08.351Z,0
2018-09-18T00:24:08.215Z,0
2018-09-18T00:25:08.326Z,0
2018-09-18T00:26:08.232Z,0
2018-09-18T00:27:08.260Z,0
2018-09-18T00:28:08.308Z,0
2018-09-18T00:29:08.219Z,0
2018-09-18T00:30:08.196Z,0
2018-09-18T00:31:08.318Z,0
2018-09-18T00:32:08.304Z,0
2018-09-18T00:33:08.319Z,0
2018-09-18T00:34:08.223Z,0
2018-09-18T00:35:08.333Z,0
2018-09-18T00:36:08.325Z,0
2018-09-18T00:37:08.312Z,0
2018-09-18T00:38:08.308Z,0
2018-09-18T00:39:08.218Z,0
2018-09-18T00:40:08.264Z,0
2018-09-18T00:41:08.210Z,0
2018-09-18T00:42:08.224Z,0
2018-09-18T00:43:08.264Z,0
2018-09-18T00:44:08.300Z,0
2018-09-18T00:45:08.209Z,0
2018-09-18T00:46:08.302Z,0
2018-09-18T00:47:08.302Z,0
2018-09-18T00:48:08.302Z,0
2018-09-18T00:49:08.304Z,0
2018-09-18T00:50:08.306Z,0
2018-09-18T00:51:08.397Z,0
2018-09-18T00:52:08.233Z,0
2018-09-18T00:53:08.219Z,0
2018-09-18T00:54:08.341Z,0
2018-09-18T00:55:08.343Z,0
2018-09-18T00:56:08.311Z,0
2018-09-18T00:57:08.314Z,0
2018-09-18T00:58:08.232Z,0
2018-09-18T00:59:08.251Z,0
2018-09-18T01:00:08.350Z,0
2018-09-18T01:01:08.239Z,0
2018-09-18T01:02:08.316Z,0
2018-09-18T01:03:08.361Z,0
2018-09-18T01:04:08.295Z,0
2018-09-18T01:05:08.343Z,0
2018-09-18T01:06:08.284Z,0
2018-09-18T01:07:08.304Z,0
2018-09-18T01:08:08.287Z,0
2018-09-18T01:09:08.322Z,0
2018-09-18T01:10:08.355Z,0
2018-09-18T01:11:08.265Z,0
2018-09-18T01:12:08.264Z,0
2018-09-18T01:13:08.332Z,0
2018-09-18T01:14:08.291Z,0
2018-09-18T01:15:08.268Z,0
2018-09-18T01:16:08.270Z,0
2018-09-18T01:17:08.296Z,0
2018-09-18T01:18:08.255Z,0
2018-09-18T01:19:08.256Z,0
2018-09-18T01:20:08.374Z,0
2018-09-18T01:21:08.341Z,0
2018-09-18T01:22:08.256Z,0
2018-09-18T01:23:08.274Z,0
2018-09-18T01:24:08.335Z,0
2018-09-18T01:25:08.270Z,0
2018-09-18T01:26:08.276Z,0
2018-09-18T01:27:08.302Z,0
2018-09-18T01:28:08.284Z,0
2018-09-18T01:29:08.339Z,0
2018-09-18T01:30:08.277Z,0
2018-09-18T01:31:08.341Z,0
2018-09-18T01:32:08.276Z,0
2018-09-18T01:33:08.259Z,0
2018-09-18T01:34:08.377Z,0
2018-09-18T01:35:08.377Z,0
2018-09-18T01:36:08.303Z,0
2018-09-18T01:37:08.249Z,0
2018-09-18T01:38:08.308Z,0
2018-09-18T01:39:08.305Z,0
2018-09-18T01:40:08.304Z,0
2018-09-18T01:41:08.251Z,0
2018-09-18T01:42:08.305Z,0
2018-09-18T01:43:08.313Z,0
2018-09-18T01:44:08.290Z,0
2018-09-18T01:45:08.314Z,0
2018-09-18T01:46:08.350Z,0
2018-09-18T01:47:08.270Z,0
2018-09-18T01:48:08.256Z,0
2018-09-18T01:49:08.255Z,0
2018-09-18T01:50:08.409Z,0
2018-09-18T01:51:08.387Z,0
2018-09-18T01:52:08.414Z,0
2018-09-18T01:53:08.305Z,0
2018-09-18T01:54:08.213Z,0
2018-09-18T01:55:08.260Z,0
2018-09-18T01:56:08.307Z,0
2018-09-18T01:57:08.307Z,0
2018-09-18T01:58:08.217Z,0
2018-09-18T01:59:08.221Z,0
2018-09-18T02:00:08.223Z,0
2018-09-18T02:01:08.278Z,0
2018-09-18T02:02:08.310Z,0
2018-09-18T02:03:08.402Z,0
2018-09-18T02:04:08.385Z,0
2018-09-18T02:05:08.366Z,0
2018-09-18T02:06:08.308Z,0
2018-09-18T02:07:08.382Z,0
2018-09-18T02:08:08.332Z,0
2018-09-18T02:09:08.327Z,0
2018-09-18T02:10:08.268Z,0
2018-09-18T02:11:08.368Z,0
2018-09-18T02:12:08.286Z,0
2018-09-18T02:13:08.408Z,0
2018-09-18T02:14:08.391Z,0
2018-09-18T02:15:08.277Z,0
2018-09-18T02:16:08.393Z,0
2018-09-18T02:17:08.342Z,0
2018-09-18T02:18:08.320Z,0
2018-09-18T02:19:08.311Z,0
2018-09-18T02:20:08.399Z,0
2018-09-18T02:21:08.374Z,0
2018-09-18T02:22:08.402Z,0
2018-09-18T02:23:08.376Z,0
2018-09-18T02:24:08.418Z,0
2018-09-18T02:25:08.398Z,0
2018-09-18T02:26:08.376Z,0
2018-09-18T02:27:08.357Z,0
2018-09-18T02:28:08.357Z,0
2018-09-18T02:29:08.281Z,0
2018-09-18T02:30:08.344Z,0
2018-09-18T02:31:08.442Z,0
2018-09-18T02:32:08.324Z,0
2018-09-18T02:33:08.403Z,0
2018-09-18T02:34:08.386Z,0
2018-09-18T02:35:08.387Z,0
2018-09-18T02:36:08.287Z,0
2018-09-18T02:37:08.346Z,0
2018-09-18T02:38:08.424Z,0
2018-09-18T02:39:08.291Z,0
2018-09-18T02:40:08.311Z,0
2018-09-18T02:41:08.423Z,0
2018-09-18T02:42:08.388Z,0
2018-09-18T02:43:08.366Z,0
2018-09-18T02:44:08.311Z,0
2018-09-18T02:45:08.420Z,0
2018-09-18T02:46:08.370Z,0
2018-09-18T02:47:08.413Z,0
2018-09-18T02:48:08.295Z,0
2018-09-18T02:49:08.366Z,0
2018-09-18T02:50:08.315Z,0
2018-09-18T02:51:08.433Z,0
2018-09-18T02:52:08.363Z,0
2018-09-18T02:53:08.428Z,0
2018-09-18T02:54:08.298Z,0
2018-09-18T02:55:08.431Z,0
2018-09-18T02:56:08.406Z,0
2018-09-18T02:57:16.923Z,0
2018-09-18T02:58:08.419Z,0
2018-09-18T02:59:08.324Z,0
2018-09-18T03:00:08.328Z,0
2018-09-18T03:01:08.404Z,0
2018-09-18T03:02:08.432Z,0
2018-09-18T03:03:08.413Z,0
2018-09-18T03:04:08.345Z,0
2018-09-18T03:05:08.344Z,0
2018-09-18T03:06:08.472Z,0
2018-09-18T03:07:08.412Z,0
2018-09-18T03:08:08.341Z,0
2018-09-18T03:09:08.478Z,0
2018-09-18T03:10:08.418Z,0
2018-09-18T03:11:08.353Z,0
2018-09-18T03:12:08.348Z,0
2018-09-18T03:13:08.412Z,0
2018-09-18T03:14:08.417Z,0
2018-09-18T03:15:08.350Z,0
2018-09-18T03:16:08.352Z,0
2018-09-18T03:17:08.419Z,0
2018-09-18T03:18:08.420Z,0
2018-09-18T03:19:08.354Z,0
2018-09-18T03:20:08.423Z,0
2018-09-18T03:21:08.398Z,0
2018-09-18T03:22:08.351Z,0
2018-09-18T03:23:08.430Z,0
2018-09-18T03:24:08.378Z,0
2018-09-18T03:25:08.418Z,0
2018-09-18T03:26:08.459Z,0
2018-09-18T03:27:08.440Z,0
2018-09-18T03:28:08.401Z,0
2018-09-18T03:29:08.341Z,0
2018-09-18T03:30:08.455Z,0
2018-09-18T03:31:08.468Z,0
2018-09-18T03:32:08.429Z,0
2018-09-18T03:33:08.467Z,0
2018-09-18T03:34:08.392Z,0
2018-09-18T03:35:08.426Z,0
2018-09-18T03:36:08.406Z,0
2018-09-18T03:37:08.349Z,0
2018-09-18T03:38:08.438Z,0
2018-09-18T03:39:08.372Z,0
2018-09-18T03:40:08.351Z,0
2018-09-18T03:41:08.370Z,0
2018-09-18T03:42:08.355Z,0
2018-09-18T03:43:08.337Z,0
2018-09-18T03:44:08.380Z,0
2018-09-18T03:45:08.389Z,0
2018-09-18T03:46:08.290Z,0
2018-09-18T03:47:08.296Z,0
2018-09-18T03:48:08.383Z,0
2018-09-18T03:49:08.339Z,0
2018-09-18T03:50:08.383Z,0
2018-09-18T03:51:08.295Z,0
2018-09-18T03:52:08.297Z,0
2018-09-18T03:53:08.439Z,0
2018-09-18T03:54:08.437Z,0
2018-09-18T03:55:08.358Z,0
2018-09-18T03:56:08.440Z,0
2018-09-18T03:57:08.436Z,0
2018-09-18T03:58:08.398Z,0
2018-09-18T03:59:08.442Z,0
2018-09-18T04:00:08.442Z,0
2018-09-18T04:01:08.440Z,0
2018-09-18T04:02:08.370Z,0
2018-09-18T04:03:08.455Z,0
2018-09-18T04:04:08.474Z,0
2018-09-18T04:06:08.429Z,0
2018-09-18T04:07:08.476Z,0
2018-09-18T04:08:08.451Z,0
2018-09-18T04:09:08.411Z,0
2018-09-18T04:10:08.395Z,0
2018-09-18T04:11:08.478Z,0
2018-09-18T04:12:08.488Z,0
2018-09-18T04:13:08.393Z,0
2018-09-18T04:14:08.463Z,0
2018-09-18T04:15:08.459Z,0
2018-09-18T04:16:08.397Z,0
2018-09-18T04:17:08.457Z,0
2018-09-18T04:18:08.463Z,0
2018-09-18T04:19:08.392Z,0
2018-09-18T04:20:08.461Z,0
2018-09-18T04:21:08.393Z,0
2018-09-18T04:22:08.399Z,0
2018-09-18T04:23:08.442Z,0
2018-09-18T04:24:08.435Z,0
2018-09-18T04:25:08.368Z,0
2018-09-18T04:26:08.408Z,0
2018-09-18T04:27:08.463Z,4
2018-09-18T04:28:08.468Z,4
2018-09-18T04:29:08.426Z,4
2018-09-18T04:30:08.466Z,4
2018-09-18T04:31:08.386Z,4
2018-09-18T04:32:08.499Z,8
2018-09-18T04:33:08.433Z,8
2018-09-18T04:34:08.471Z,12
2018-09-18T04:35:08.504Z,16
2018-09-18T04:36:08.388Z,16
2018-09-18T04:37:08.427Z,20
2018-09-18T04:38:08.472Z,20
2018-09-18T04:39:08.500Z,28
2018-09-18T04:40:08.445Z,32
2018-09-18T04:41:08.456Z,36
2018-09-18T04:42:08.474Z,48
2018-09-18T04:43:08.429Z,56
2018-09-18T04:44:08.411Z,68
2018-09-18T04:45:08.414Z,76
2018-09-18T04:46:08.453Z,96
2018-09-18T04:47:08.481Z,112
2018-09-18T04:48:08.415Z,128
2018-09-18T04:49:08.485Z,152
2018-09-18T04:50:08.415Z,176
2018-09-18T04:51:08.421Z,208
2018-09-18T04:52:08.483Z,236
2018-09-18T04:53:08.469Z,264
2018-09-18T04:54:08.386Z,300
2018-09-18T04:55:08.474Z,336
2018-09-18T04:56:08.443Z,376
2018-09-18T04:57:08.480Z,420
2018-09-18T04:58:08.481Z,468
2018-09-18T04:59:08.474Z,520
2018-09-18T05:00:08.423Z,568
2018-09-18T05:01:08.475Z,624
2018-09-18T05:02:08.409Z,680
2018-09-18T05:03:08.524Z,744
2018-09-18T05:04:08.475Z,820
2018-09-18T05:05:08.489Z,904
2018-09-18T05:06:08.394Z,992
2018-09-18T05:07:08.459Z,1080
2018-09-18T05:08:08.505Z,1168
2018-09-18T05:09:08.420Z,1268
2018-09-18T05:10:08.452Z,1364
2018-09-18T05:11:08.398Z,1456
2018-09-18T05:12:08.466Z,1568
2018-09-18T05:13:08.430Z,1700
2018-09-18T05:14:08.568Z,1832
2018-09-18T05:15:08.435Z,1944
2018-09-18T05:16:08.503Z,2040
2018-09-18T05:17:08.501Z,2116
2018-09-18T05:18:08.511Z,2184
2018-09-18T05:19:08.433Z,2240
2018-09-18T05:20:08.503Z,2276
2018-09-18T05:21:08.505Z,2308
2018-09-18T05:22:08.436Z,2356
2018-09-18T05:23:08.460Z,2376
2018-09-18T05:24:08.503Z,2404
2018-09-18T05:25:08.559Z,2460
2018-09-18T05:26:08.548Z,2536
2018-09-18T05:27:08.481Z,2624
2018-09-18T05:28:08.446Z,2708
2018-09-18T05:29:08.465Z,2804
2018-09-18T05:30:08.446Z,2884
2018-09-18T05:31:08.341Z,2984
2018-09-18T05:32:08.491Z,3088
2018-09-18T05:33:08.511Z,3192
2018-09-18T05:34:08.507Z,3300
2018-09-18T05:35:08.511Z,3408
2018-09-18T05:36:08.479Z,3512
2018-09-18T05:37:08.519Z,3632
2018-09-18T05:38:08.482Z,3756
2018-09-18T05:39:08.518Z,3884
2018-09-18T05:40:08.447Z,4016
2018-09-18T05:41:08.518Z,4156
2018-09-18T05:42:08.544Z,4304
2018-09-18T05:43:08.484Z,4464
2018-09-18T05:44:08.556Z,4640
2018-09-18T05:45:08.539Z,4800
2018-09-18T05:46:08.591Z,4968
2018-09-18T05:47:08.544Z,5100
2018-09-18T05:48:08.502Z,5260
2018-09-18T05:49:08.500Z,5480
2018-09-18T05:50:08.565Z,5696
2018-09-18T05:51:08.555Z,5968
2018-09-18T05:52:08.499Z,6552
2018-09-18T05:53:08.522Z,7120
2018-09-18T05:54:08.494Z,6912
2018-09-18T05:55:08.542Z,6832
2018-09-18T05:56:08.434Z,7020
2018-09-18T05:57:08.528Z,7420
2018-09-18T05:58:08.481Z,7760
2018-09-18T05:59:08.532Z,7544
2018-09-18T06:00:08.527Z,7348
2018-09-18T06:01:08.434Z,7440
2018-09-18T06:02:08.540Z,7388
2018-09-18T06:03:08.439Z,7480
2018-09-18T06:04:08.568Z,7572
2018-09-18T06:05:08.438Z,7704
2018-09-18T06:06:08.551Z,7796
2018-09-18T06:07:08.451Z,7872
2018-09-18T06:08:08.510Z,7964
2018-09-18T06:09:08.576Z,8052
2018-09-18T06:10:08.437Z,8128
2018-09-18T06:11:08.440Z,8212
2018-09-18T06:12:08.476Z,8328
2018-09-18T06:13:08.505Z,8428
2018-09-18T06:14:08.422Z,8548
2018-09-18T06:15:08.457Z,8692
2018-09-18T06:16:08.457Z,8788
2018-09-18T06:17:08.526Z,8940
2018-09-18T06:18:08.429Z,9072
2018-09-18T06:19:08.527Z,9092
2018-09-18T06:20:08.530Z,9120
2018-09-18T06:21:08.533Z,9200
2018-09-18T06:22:08.411Z,10260
2018-09-18T06:23:08.451Z,13800
2018-09-18T06:24:08.544Z,16224
2018-09-18T06:25:08.506Z,18468
2018-09-18T06:26:08.500Z,21856
2018-09-18T06:27:08.546Z,23648
2018-09-18T06:28:08.464Z,24768
2018-09-18T06:29:08.528Z,26272
2018-09-18T06:30:08.552Z,26144
2018-09-18T06:32:08.555Z,25504
2018-09-18T06:33:08.577Z,25024
2018-09-18T06:34:08.571Z,24544
2018-09-18T06:35:08.613Z,17872
2018-09-18T06:36:08.528Z,14148
2018-09-18T06:37:08.560Z,14152
2018-09-18T06:38:08.524Z,13636
2018-09-18T06:39:08.462Z,13368
2018-09-18T06:40:08.597Z,12132
2018-09-18T06:41:08.557Z,11680
2018-09-18T06:42:08.460Z,13884
2018-09-18T06:43:08.557Z,17256
2018-09-18T06:44:08.499Z,18068
2018-09-18T06:45:08.589Z,23104
2018-09-18T06:46:08.561Z,28992
2018-09-18T06:47:08.515Z,31904
2018-09-18T06:48:08.607Z,34432
2018-09-18T06:49:08.520Z,30336
2018-09-18T06:50:08.519Z,27680
2018-09-18T06:51:08.589Z,27360
2018-09-18T06:52:08.603Z,29152
2018-09-18T06:53:08.524Z,28992
2018-09-18T06:54:08.556Z,30144
2018-09-18T06:55:08.558Z,34336
2018-09-18T06:56:08.492Z,36768
2018-09-18T06:57:08.591Z,36160
2018-09-18T06:58:08.567Z,35328
2018-09-18T06:59:08.564Z,31232
2018-09-18T07:00:08.563Z,30560
2018-09-18T07:01:08.508Z,32064
2018-09-18T07:02:08.563Z,32448
2018-09-18T07:03:08.484Z,40768
2018-09-18T07:04:08.502Z,47040
2018-09-18T07:05:08.555Z,37984
2018-09-18T07:06:08.556Z,40832
2018-09-18T07:07:08.547Z,44000
2018-09-18T07:08:08.552Z,46304
2018-09-18T07:09:08.574Z,47392
2018-09-18T07:10:08.480Z,47520
2018-09-18T07:11:08.636Z,46752
2018-09-18T07:12:08.617Z,45984
2018-09-18T07:13:08.564Z,45632
2018-09-18T07:14:08.583Z,46336
2018-09-18T07:15:08.646Z,47296
2018-09-18T07:16:08.587Z,48032
2018-09-18T07:17:08.588Z,48288
2018-09-18T07:18:08.637Z,48576
2018-09-18T07:19:08.517Z,48960
2018-09-18T07:20:08.586Z,48960
2018-09-18T07:21:08.598Z,48960
2018-09-18T07:22:08.588Z,49568
2018-09-18T07:23:08.591Z,51104
2018-09-18T07:24:08.521Z,52608
2018-09-18T07:25:08.645Z,53984
2018-09-18T07:26:08.594Z,55136
2018-09-18T07:27:08.597Z,55808
2018-09-18T07:28:08.525Z,55744
2018-09-18T07:29:08.590Z,55968
2018-09-18T07:30:08.525Z,55968
2018-09-18T07:31:08.597Z,55200
2018-09-18T07:32:08.598Z,55232
2018-09-18T07:33:08.529Z,56288
2018-09-18T07:34:08.583Z,57568
2018-09-18T07:35:08.523Z,59168
2018-09-18T07:36:08.520Z,59904
2018-09-18T07:37:08.592Z,60736
2018-09-18T07:38:08.505Z,62080
2018-09-18T07:39:08.590Z,62720
2018-09-18T07:40:08.519Z,62720
2018-09-18T07:41:08.555Z,62112
2018-09-18T07:42:08.594Z,61184
2018-09-18T07:43:08.526Z,60640
2018-09-18T07:44:08.561Z,61568
2018-09-18T07:45:08.639Z,64160
2018-09-18T07:46:08.642Z,67232
2018-09-18T07:47:08.601Z,69152
2018-09-18T07:48:08.625Z,69536
2018-09-18T07:49:08.641Z,69088
2018-09-18T07:50:08.628Z,67552
2018-09-18T07:51:08.607Z,65216
2018-09-18T07:52:08.623Z,64832
2018-09-18T07:53:08.514Z,64800
2018-09-18T07:54:08.544Z,65280
2018-09-18T07:55:08.610Z,66912
2018-09-18T07:56:08.613Z,69312
2018-09-18T07:57:08.612Z,71968
2018-09-18T07:58:08.613Z,73920
2018-09-18T07:59:08.614Z,75168
2018-09-18T08:00:08.548Z,75648
2018-09-18T08:01:08.614Z,75168
2018-09-18T08:02:08.628Z,74080
2018-09-18T08:03:08.574Z,73728
2018-09-18T08:04:08.635Z,74496
2018-09-18T08:05:08.647Z,76448
2018-09-18T08:06:08.634Z,79168
2018-09-18T08:07:08.545Z,81280
2018-09-18T08:08:08.645Z,83552
2018-09-18T08:09:08.657Z,86048
2018-09-18T08:10:08.624Z,87584
2018-09-18T08:11:08.660Z,87840
2018-09-18T08:12:08.648Z,87616
2018-09-18T08:13:08.657Z,86496
2018-09-18T08:14:08.614Z,86016
2018-09-18T08:15:08.611Z,86656
2018-09-18T08:16:08.527Z,87456
2018-09-18T08:17:08.544Z,88160
2018-09-18T08:18:08.624Z,89024
2018-09-18T08:19:08.598Z,90816
2018-09-18T08:20:08.611Z,92352
2018-09-18T08:21:08.514Z,93568
2018-09-18T08:22:08.552Z,92384
2018-09-18T08:23:08.580Z,89536
2018-09-18T08:24:08.702Z,86848
2018-09-18T08:25:08.701Z,84640
2018-09-18T08:26:08.609Z,83584
2018-09-18T08:27:08.662Z,84704
2018-09-18T08:28:08.643Z,87904
2018-09-18T08:29:08.591Z,91776
2018-09-18T08:30:08.637Z,96224
2018-09-18T08:31:08.573Z,99744
2018-09-18T08:32:08.610Z,99808
2018-09-18T08:33:08.638Z,96832
2018-09-18T08:34:08.648Z,93120
2018-09-18T08:35:08.673Z,90592
2018-09-18T08:36:08.636Z,88832
2018-09-18T08:37:08.647Z,88704
2018-09-18T08:38:08.574Z,91968
2018-09-18T08:39:08.677Z,96416
2018-09-18T08:40:08.802Z,101312
2018-09-18T08:41:08.667Z,105344
2018-09-18T08:42:08.580Z,107200
2018-09-18T08:43:08.693Z,107040
2018-09-18T08:44:08.624Z,104352
2018-09-18T08:45:08.665Z,101600
2018-09-18T08:46:08.701Z,98784
2018-09-18T08:47:08.552Z,97536
2018-09-18T08:48:08.620Z,97824
2018-09-18T08:49:08.647Z,99328
2018-09-18T08:50:08.650Z,100512
2018-09-18T08:51:08.676Z,101088
2018-09-18T08:52:08.711Z,100288
2018-09-18T08:53:08.681Z,100064
2018-09-18T08:54:08.621Z,100128
2018-09-18T08:55:08.680Z,99872
2018-09-18T08:56:08.682Z,100672
2018-09-18T08:57:08.655Z,101568
2018-09-18T08:58:08.685Z,102336
2018-09-18T08:59:08.723Z,101952
2018-09-18T09:00:08.674Z,101472
2018-09-18T09:01:08.694Z,102208
2018-09-18T09:02:08.627Z,102016
2018-09-18T09:03:08.774Z,101344
2018-09-18T09:04:08.625Z,100960
2018-09-18T09:05:08.646Z,100608
2018-09-18T09:06:08.722Z,99200
2018-09-18T09:07:08.614Z,98464
2018-09-18T09:08:08.904Z,97376
2018-09-18T09:09:08.638Z,97888
2018-09-18T09:10:08.610Z,100320
2018-09-18T09:11:08.550Z,102368
2018-09-18T09:12:08.661Z,102848
2018-09-18T09:13:08.594Z,101184
2018-09-18T09:14:08.599Z,98368
2018-09-18T09:15:08.761Z,96000
2018-09-18T09:16:08.619Z,95872
2018-09-18T09:17:08.557Z,97152
2018-09-18T09:18:08.706Z,100448
2018-09-18T09:19:08.598Z,103232
2018-09-18T09:20:08.627Z,103968
2018-09-18T09:21:08.793Z,104224
2018-09-18T09:22:08.762Z,104800
2018-09-18T09:23:08.684Z,104288
2018-09-18T09:24:08.642Z,104512
2018-09-18T09:25:08.674Z,106240
2018-09-18T09:26:08.616Z,107232
2018-09-18T09:27:08.606Z,105632
2018-09-18T09:28:08.613Z,103264
2018-09-18T09:29:08.676Z,101312
2018-09-18T09:30:08.757Z,100160
2018-09-18T09:31:08.684Z,101280
2018-09-18T09:32:08.761Z,105024
2018-09-18T09:33:08.667Z,109280
2018-09-18T09:34:08.611Z,112992
2018-09-18T09:35:08.685Z,116160
2018-09-18T09:36:08.642Z,117216
2018-09-18T09:37:08.752Z,115680
2018-09-18T09:38:08.685Z,113824
2018-09-18T09:39:08.620Z,111520
2018-09-18T09:40:08.620Z,110624
2018-09-18T09:41:08.686Z,111424
2018-09-18T09:42:08.614Z,113152
2018-09-18T09:43:08.619Z,114688
2018-09-18T09:44:08.668Z,115104
2018-09-18T09:45:08.680Z,116320
2018-09-18T09:46:08.708Z,115840
2018-09-18T09:48:08.694Z,115744
2018-09-18T09:49:08.731Z,115872
2018-09-18T09:50:08.657Z,116832
2018-09-18T09:51:08.788Z,118880
2018-09-18T09:52:08.670Z,119968
2018-09-18T09:53:08.600Z,120448
2018-09-18T09:54:08.720Z,119904
2018-09-18T09:55:08.599Z,118880
2018-09-18T09:56:08.720Z,117376
2018-09-18T09:57:08.724Z,115904
2018-09-18T09:58:08.654Z,114688
2018-09-18T09:59:08.618Z,113344
2018-09-18T10:00:08.697Z,112768
2018-09-18T10:01:08.671Z,111584
2018-09-18T10:02:08.681Z,111200
2018-09-18T10:03:08.628Z,112064
2018-09-18T10:04:08.725Z,112800
2018-09-18T10:05:08.610Z,112928
2018-09-18T10:06:08.721Z,113056
2018-09-18T10:07:08.682Z,113248
2018-09-18T10:08:08.704Z,113184
2018-09-18T10:09:08.744Z,114336
2018-09-18T10:10:08.730Z,116256
2018-09-18T10:11:08.676Z,117440
2018-09-18T10:12:08.734Z,117888
2018-09-18T10:13:08.699Z,117984
2018-09-18T10:14:08.670Z,117920
2018-09-18T10:15:08.679Z,117056
2018-09-18T10:16:08.639Z,119136
2018-09-18T10:17:08.730Z,122304
2018-09-18T10:18:08.662Z,124224
2018-09-18T10:19:08.716Z,123424
2018-09-18T10:20:08.716Z,120416
2018-09-18T10:21:08.713Z,117632
2018-09-18T10:22:08.657Z,116512
2018-09-18T10:23:08.683Z,116832
2018-09-18T10:24:08.744Z,119136
2018-09-18T10:25:08.799Z,121568
2018-09-18T10:26:08.781Z,123392
2018-09-18T10:27:08.860Z,124672
2018-09-18T10:28:08.694Z,124544
2018-09-18T10:29:08.685Z,123072
2018-09-18T10:30:08.768Z,122336
2018-09-18T10:31:08.716Z,123008
2018-09-18T10:32:08.636Z,124416
2018-09-18T10:33:08.783Z,126176
2018-09-18T10:34:08.659Z,125728
2018-09-18T10:35:08.712Z,124256
2018-09-18T10:36:08.660Z,122752
2018-09-18T10:37:08.626Z,121344
2018-09-18T10:38:08.745Z,120224
2018-09-18T10:39:08.617Z,121184
2018-09-18T10:40:08.651Z,123936
2018-09-18T10:41:08.799Z,126432
2018-09-18T10:42:08.779Z,126464
2018-09-18T10:43:08.713Z,124288
2018-09-18T10:44:08.629Z,122272
2018-09-18T10:45:08.694Z,120544
2018-09-18T10:46:08.693Z,121088
2018-09-18T10:47:08.636Z,122080
2018-09-18T10:48:08.668Z,123904
2018-09-18T10:49:08.643Z,124480
2018-09-18T10:50:08.623Z,122848
2018-09-18T10:51:08.684Z,122080
2018-09-18T10:52:08.727Z,121056
2018-09-18T10:53:08.654Z,119200
2018-09-18T10:54:08.753Z,118080
2018-09-18T10:55:08.764Z,118240
2018-09-18T10:56:08.775Z,118816
2018-09-18T10:57:08.636Z,118144
2018-09-18T10:58:08.678Z,115968
2018-09-18T10:59:08.656Z,114432
2018-09-18T11:00:08.708Z,114048
2018-09-18T11:01:08.787Z,114880
2018-09-18T11:02:08.949Z,114976
2018-09-18T11:03:08.720Z,113856
2018-09-18T11:04:08.668Z,113408
2018-09-18T11:05:08.792Z,115072
2018-09-18T11:06:08.760Z,118016
2018-09-18T11:07:08.889Z,121472
2018-09-18T11:08:08.707Z,123552
2018-09-18T11:09:08.686Z,123680
2018-09-18T11:10:08.853Z,122112
2018-09-18T11:11:08.651Z,122176
2018-09-18T11:12:08.696Z,125152
2018-09-18T11:13:08.764Z,126720
2018-09-18T11:14:08.792Z,126880
2018-09-18T11:15:08.708Z,126368
2018-09-18T11:16:09.010Z,125728
2018-09-18T11:17:08.786Z,124960
2018-09-18T11:18:08.734Z,124320
2018-09-18T11:19:08.702Z,124768
2018-09-18T11:20:08.783Z,125152
2018-09-18T11:21:08.695Z,126432
2018-09-18T11:22:08.774Z,126144
2018-09-18T11:23:08.714Z,122912
2018-09-18T11:24:08.767Z,117920
2018-09-18T11:25:08.769Z,112928
2018-09-18T11:26:08.789Z,110272
2018-09-18T11:27:08.768Z,109792
2018-09-18T11:28:08.699Z,110848
2018-09-18T11:29:08.765Z,113696
2018-09-18T11:30:08.697Z,115456
2018-09-18T11:31:08.811Z,116640
2018-09-18T11:32:08.788Z,115904
2018-09-18T11:33:08.699Z,113824
2018-09-18T11:34:08.738Z,112928
2018-09-18T11:35:08.733Z,114592
2018-09-18T11:36:08.800Z,116800
2018-09-18T11:37:08.704Z,116800
2018-09-18T11:38:08.790Z,114944
2018-09-18T11:39:08.730Z,113472
2018-09-18T11:40:08.781Z,113504
2018-09-18T11:41:08.731Z,115296
2018-09-18T11:42:08.749Z,118208
2018-09-18T11:43:08.813Z,121344
2018-09-18T11:44:08.696Z,123968
2018-09-18T11:45:08.692Z,124480
2018-09-18T11:46:08.641Z,123648
2018-09-18T11:47:08.680Z,122656
2018-09-18T11:48:08.680Z,121792
2018-09-18T11:49:08.773Z,121952
2018-09-18T11:50:08.764Z,122496
2018-09-18T11:51:08.666Z,122048
2018-09-18T11:52:08.664Z,121664
2018-09-18T11:53:08.663Z,121376
2018-09-18T11:54:08.849Z,120160
2018-09-18T11:55:08.779Z,120992
2018-09-18T11:56:08.807Z,122496
2018-09-18T11:57:08.882Z,121344
2018-09-18T11:58:08.801Z,118048
2018-09-18T11:59:08.701Z,114688
2018-09-18T12:00:08.689Z,114208
2018-09-18T12:01:08.687Z,114688
2018-09-18T12:02:08.784Z,117248
2018-09-18T12:03:08.779Z,119776
2018-09-18T12:04:08.738Z,123104
2018-09-18T12:05:08.869Z,125120
2018-09-18T12:06:08.708Z,124384
2018-09-18T12:07:08.725Z,120640
2018-09-18T12:08:08.816Z,115872
2018-09-18T12:09:08.908Z,109888
2018-09-18T12:10:08.767Z,105600
2018-09-18T12:11:08.729Z,104800
2018-09-18T12:12:08.790Z,107456
2018-09-18T12:13:08.826Z,108672
2018-09-18T12:14:08.810Z,108000
2018-09-18T12:15:08.766Z,106208
2018-09-18T12:16:08.745Z,103328
2018-09-18T12:17:08.842Z,100928
2018-09-18T12:18:08.769Z,101760
2018-09-18T12:19:08.776Z,103168
2018-09-18T12:20:08.797Z,103936
2018-09-18T12:21:08.753Z,101088
2018-09-18T12:22:08.887Z,95392
2018-09-18T12:23:08.782Z,92416
2018-09-18T12:24:08.738Z,92704
2018-09-18T12:25:08.738Z,94144
2018-09-18T12:26:08.774Z,94752
2018-09-18T12:27:08.800Z,94080
2018-09-18T12:28:08.765Z,91680
2018-09-18T12:29:08.766Z,88320
2018-09-18T12:30:08.818Z,86304
2018-09-18T12:31:08.806Z,87488
2018-09-18T12:32:08.760Z,92000
2018-09-18T12:33:08.707Z,97120
2018-09-18T12:34:08.808Z,99584
2018-09-18T12:35:08.802Z,98592
2018-09-18T12:36:08.833Z,93344
2018-09-18T12:37:08.807Z,86048
2018-09-18T12:38:08.786Z,82944
2018-09-18T12:39:08.772Z,83264
2018-09-18T12:40:08.775Z,85952
2018-09-18T12:41:08.774Z,90144
2018-09-18T12:42:08.889Z,92480
2018-09-18T12:43:08.812Z,92320
2018-09-18T12:44:08.844Z,89120
2018-09-18T12:45:08.809Z,84384
2018-09-18T12:46:08.752Z,80160
2018-09-18T12:47:08.750Z,79968
2018-09-18T12:48:08.827Z,83520
2018-09-18T12:49:08.833Z,86496
2018-09-18T12:50:08.960Z,88128
2018-09-18T12:51:08.756Z,89472
2018-09-18T12:52:08.753Z,89216
2018-09-18T12:53:08.828Z,87072
2018-09-18T12:54:08.832Z,85440
2018-09-18T12:55:08.828Z,87232
2018-09-18T12:56:08.886Z,89312
2018-09-18T12:57:08.944Z,91968
2018-09-18T12:58:08.882Z,92928
2018-09-18T12:59:08.790Z,91520
2018-09-18T13:00:08.890Z,88480
2018-09-18T13:01:08.762Z,84288
2018-09-18T13:02:08.855Z,80544
2018-09-18T13:03:08.763Z,80064
2018-09-18T13:04:08.831Z,80032
2018-09-18T13:05:08.764Z,78560
2018-09-18T13:06:08.888Z,76672
2018-09-18T13:07:08.842Z,74656
2018-09-18T13:08:08.877Z,72224
2018-09-18T13:09:08.768Z,70144
2018-09-18T13:10:08.960Z,69888
2018-09-18T13:11:08.830Z,73024
2018-09-18T13:12:08.829Z,77408
2018-09-18T13:13:08.835Z,82176
2018-09-18T13:14:08.966Z,86752
2018-09-18T13:15:08.778Z,87072
2018-09-18T13:16:08.763Z,82560
2018-09-18T13:17:08.849Z,75936
2018-09-18T13:18:08.772Z,70688
2018-09-18T13:19:08.833Z,67872
2018-09-18T13:20:08.745Z,66720
2018-09-18T13:21:08.782Z,68000
2018-09-18T13:22:08.738Z,69664
2018-09-18T13:23:08.749Z,69536
2018-09-18T13:24:08.840Z,68000
2018-09-18T13:25:08.846Z,65824
2018-09-18T13:26:08.847Z,65728
2018-09-18T13:27:08.844Z,68736
2018-09-18T13:28:08.772Z,76416
2018-09-18T13:29:08.780Z,83264